Terminal Aerodrome Forecast
Issued by NWS

Home | Current Version | Previous Version | Text Only | Print | Product List | Glossary On
Versions: 1 2 3 4 5 6 7 8 9 10 11 12
311
FTUS44 KLZK 261136
TAFLIT
TAF
KLIT 261136Z 2612/2712 36008KT P6SM VCSH SCT020 OVC050
      TEMPO 2612/2615 BKN020
     FM261800 02009KT P6SM BKN050
     FM262200 03008KT P6SM SCT050 BKN100
     FM270200 01005KT P6SM SKC=

USA.gov is the U.S. government's official web portal to all federal, state and local government web resources and services.